Time,TemperatureF,DewpointF,PressureIn,WindDirection,WindDirectionDegrees,WindSpeedMPH,WindSpeedGustMPH,Humidity,HourlyPrecipIn,Conditions,Clouds,dailyrainin,SoftwareType,DateUTC
2013-05-20 00:01:00,60.5,59.4,29.81,NNW,342,0.0,0.0,96,0.00,,,0.08,Wunderground v.1.15,2013-05-20 04:01:00,
2013-05-20 00:02:00,60.4,59.3,29.81,NNW,342,0.0,0.0,96,0.00,,,0.00,Wunderground v.1.15,2013-05-20 04:02:00,
2013-05-20 00:03:00,60.4,59.3,29.82,NNW,342,0.0,0.0,96,0.00,,,0.00,Wunderground v.1.15,2013-05-20 04:03:00,
2013-05-20 00:04:00,60.4,59.3,29.81,NNW,342,0.0,0.0,96,0.00,,,0.00,Wunderground v.1.15,2013-05-20 04:04:00,
2013-05-20 00:05:00,60.4,59.3,29.81,NNW,342,0.0,0.0,96,0.00,,,0.00,Wunderground v.1.15,2013-05-20 04:05:00,
2013-05-20 00:11:00,60.2,59.1,29.82,NNW,342,0.0,0.0,96,0.00,,,0.00,Wunderground v.1.15,2013-05-20 04:11:00,
2013-05-20 00:17:00,60.2,59.1,29.82,NNW,342,0.0,0.0,96,0.00,,,0.00,Wunderground v.1.15,2013-05-20 04:17:00,
2013-05-20 00:23:00,60.1,59.0,29.83,NNW,342,0.0,0.0,96,0.00,,,0.00,Wunderground v.1.15,2013-05-20 04:23:00,
2013-05-20 00:28:00,60.0,58.9,29.83,NNW,342,0.0,0.0,96,0.00,,,0.00,Wunderground v.1.15,2013-05-20 04:28:00,
2013-05-20 00:34:00,59.9,58.8,29.83,NNW,342,0.0,0.0,96,0.00,,,0.00,Wunderground v.1.15,2013-05-20 04:34:00,
2013-05-20 00:40:00,59.9,58.8,29.83,NNW,342,0.0,0.0,96,0.00,,,0.00,Wunderground v.1.15,2013-05-20 04:40:00,
2013-05-20 00:51:00,59.8,58.7,29.83,NNW,342,0.0,0.0,96,0.00,,,0.00,Wunderground v.1.15,2013-05-20 04:51:00,
2013-05-20 00:56:00,59.8,58.7,29.83,NNW,342,0.0,0.0,96,0.00,,,0.00,Wunderground v.1.15,2013-05-20 04:56:00,
2013-05-20 01:01:00,59.8,58.9,29.83,NNW,342,0.0,0.0,97,0.00,,,0.00,Wunderground v.1.15,2013-05-20 05:01:00,
2013-05-20 01:07:00,59.7,58.8,29.83,NNW,342,0.0,0.0,97,0.00,,,0.00,Wunderground v.1.15,2013-05-20 05:07:00,
2013-05-20 01:13:00,59.6,58.7,29.83,NNW,342,0.0,0.0,97,0.00,,,0.00,Wunderground v.1.15,2013-05-20 05:13:00,
2013-05-20 01:19:00,59.5,58.6,29.83,NNW,342,0.0,0.0,97,0.00,,,0.00,Wunderground v.1.15,2013-05-20 05:19:00,
2013-05-20 01:24:00,59.5,58.6,29.83,NNW,342,0.0,0.0,97,0.00,,,0.00,Wunderground v.1.15,2013-05-20 05:24:00,
2013-05-20 01:30:00,59.5,58.6,29.83,NNW,342,0.0,0.0,97,0.00,,,0.00,Wunderground v.1.15,2013-05-20 05:30:00,
2013-05-20 01:36:00,59.4,58.5,29.83,NNW,342,0.0,0.0,97,0.00,,,0.00,Wunderground v.1.15,2013-05-20 05:36:00,
2013-05-20 01:42:00,59.3,58.4,29.83,NNW,342,0.0,0.0,97,0.00,,,0.00,Wunderground v.1.15,2013-05-20 05:42:00,
2013-05-20 01:50:00,59.2,58.3,29.83,NNW,342,0.0,0.0,97,0.00,,,0.00,Wunderground v.1.15,2013-05-20 05:50:00,
2013-05-20 01:56:00,59.2,58.3,29.82,NNW,342,0.0,0.0,97,0.00,,,0.00,Wunderground v.1.15,2013-05-20 05:56:00,
2013-05-20 02:01:00,59.2,58.3,29.83,NNW,342,0.0,0.0,97,0.00,,,0.00,Wunderground v.1.15,2013-05-20 06:01:00,
2013-05-20 02:07:00,59.2,58.3,29.83,NNW,342,0.0,0.0,97,0.00,,,0.00,Wunderground v.1.15,2013-05-20 06:07:00,
2013-05-20 02:13:00,59.1,58.2,29.82,NNW,342,0.0,0.0,97,0.00,,,0.00,Wunderground v.1.15,2013-05-20 06:13:00,
2013-05-20 02:18:00,59.1,58.2,29.82,NNW,342,0.0,0.0,97,0.00,,,0.00,Wunderground v.1.15,2013-05-20 06:18:00,
2013-05-20 02:23:00,59.0,58.2,29.82,NNW,342,0.0,0.0,97,0.00,,,0.00,Wunderground v.1.15,2013-05-20 06:23:00,
2013-05-20 02:29:00,58.8,58.0,29.82,NNW,342,0.0,0.0,97,0.00,,,0.00,Wunderground v.1.15,2013-05-20 06:29:00,
2013-05-20 02:35:00,58.7,57.9,29.82,NNW,342,0.0,0.0,97,0.00,,,0.00,Wunderground v.1.15,2013-05-20 06:35:00,
2013-05-20 02:41:00,58.7,57.9,29.82,NNW,342,0.0,0.0,97,0.00,,,0.00,Wunderground v.1.15,2013-05-20 06:41:00,
2013-05-20 02:50:00,58.7,57.9,29.82,NNW,342,0.0,0.0,97,0.00,,,0.00,Wunderground v.1.15,2013-05-20 06:50:00,
2013-05-20 02:56:00,58.7,57.9,29.83,NNW,342,0.0,0.0,97,0.00,,,0.00,Wunderground v.1.15,2013-05-20 06:56:00,
2013-05-20 03:01:00,58.7,57.9,29.83,NNW,342,0.0,0.0,97,0.00,,,0.00,Wunderground v.1.15,2013-05-20 07:01:00,
2013-05-20 03:06:00,58.7,57.9,29.83,NNW,342,0.0,0.0,97,0.00,,,0.00,Wunderground v.1.15,2013-05-20 07:06:00,
2013-05-20 03:12:00,58.8,58.0,29.83,NNW,342,0.0,0.0,97,0.00,,,0.00,Wunderground v.1.15,2013-05-20 07:12:00,
2013-05-20 03:18:00,58.9,58.1,29.83,NNW,342,0.0,0.0,97,0.00,,,0.00,Wunderground v.1.15,2013-05-20 07:18:00,
2013-05-20 03:23:00,58.9,58.1,29.83,NNW,342,0.0,0.0,97,0.00,,,0.00,Wunderground v.1.15,2013-05-20 07:23:00,
2013-05-20 03:29:00,59.1,58.2,29.83,NNW,342,0.0,0.0,97,0.00,,,0.00,Wunderground v.1.15,2013-05-20 07:29:00,
2013-05-20 03:35:00,59.2,58.3,29.84,NNW,342,0.0,0.0,97,0.00,,,0.00,Wunderground v.1.15,2013-05-20 07:35:00,
2013-05-20 03:41:00,59.3,58.4,29.84,NNW,342,0.0,0.0,97,0.00,,,0.00,Wunderground v.1.15,2013-05-20 07:41:00,
2013-05-20 03:50:00,59.5,58.6,29.84,NNW,342,0.0,0.0,97,0.00,,,0.00,Wunderground v.1.15,2013-05-20 07:50:00,
2013-05-20 03:56:00,59.6,58.7,29.84,NNW,342,0.0,1.0,97,0.00,,,0.00,Wunderground v.1.15,2013-05-20 07:56:00,
2013-05-20 04:01:00,59.6,58.7,29.84,NNW,342,0.0,0.0,97,0.00,,,0.00,Wunderground v.1.15,2013-05-20 08:01:00,
2013-05-20 04:07:00,59.6,58.7,29.84,NNW,342,0.0,0.0,97,0.00,,,0.00,Wunderground v.1.15,2013-05-20 08:07:00,
2013-05-20 04:13:00,59.5,58.6,29.84,NNW,342,0.0,0.0,97,0.00,,,0.00,Wunderground v.1.15,2013-05-20 08:13:00,
2013-05-20 04:19:00,59.5,58.6,29.84,NNW,342,0.0,0.0,97,0.00,,,0.00,Wunderground v.1.15,2013-05-20 08:19:00,
2013-05-20 04:25:00,59.4,58.5,29.84,NNW,342,0.0,0.0,97,0.00,,,0.00,Wunderground v.1.15,2013-05-20 08:25:00,
2013-05-20 04:30:00,59.5,58.6,29.83,NNW,342,0.0,0.0,97,0.00,,,0.00,Wunderground v.1.15,2013-05-20 08:30:00,
2013-05-20 04:36:00,59.4,58.5,29.83,NNW,342,0.0,0.0,97,0.00,,,0.00,Wunderground v.1.15,2013-05-20 08:36:00,
2013-05-20 04:42:00,59.3,58.4,29.83,NNW,342,0.0,0.0,97,0.00,,,0.00,Wunderground v.1.15,2013-05-20 08:42:00,
2013-05-20 04:51:00,59.0,58.2,29.83,NNW,342,0.0,0.0,97,0.00,,,0.00,Wunderground v.1.15,2013-05-20 08:51:00,
2013-05-20 04:56:00,58.9,58.1,29.83,NNW,342,0.0,0.0,97,0.00,,,0.00,Wunderground v.1.15,2013-05-20 08:56:00,
2013-05-20 05:01:00,58.7,57.9,29.83,NNW,342,0.0,0.0,97,0.00,,,0.00,Wunderground v.1.15,2013-05-20 09:01:00,
2013-05-20 05:07:00,58.5,57.7,29.83,NNW,342,0.0,0.0,97,0.00,,,0.00,Wunderground v.1.15,2013-05-20 09:07:00,
2013-05-20 05:13:00,58.4,57.6,29.83,NNW,342,0.0,0.0,97,0.00,,,0.01,Wunderground v.1.15,2013-05-20 09:13:00,
2013-05-20 05:19:00,58.2,57.4,29.83,NNW,342,0.0,0.0,97,0.00,,,0.01,Wunderground v.1.15,2013-05-20 09:19:00,
2013-05-20 05:24:00,58.2,57.4,29.83,NNW,342,0.0,0.0,97,0.00,,,0.01,Wunderground v.1.15,2013-05-20 09:24:00,
2013-05-20 05:29:00,58.1,57.3,29.83,NNW,342,0.0,0.0,97,0.00,,,0.01,Wunderground v.1.15,2013-05-20 09:29:00,
2013-05-20 05:35:00,58.2,57.4,29.82,NNW,342,0.0,0.0,97,0.00,,,0.01,Wunderground v.1.15,2013-05-20 09:35:00,
2013-05-20 05:41:00,58.2,57.4,29.83,NNW,342,0.0,0.0,97,0.00,,,0.01,Wunderground v.1.15,2013-05-20 09:41:00,
2013-05-20 05:50:00,58.4,57.6,29.83,NNW,342,0.0,0.0,97,0.00,,,0.01,Wunderground v.1.15,2013-05-20 09:50:00,
2013-05-20 05:56:00,58.6,57.8,29.83,NNW,342,0.0,0.0,97,0.00,,,0.01,Wunderground v.1.15,2013-05-20 09:56:00,
2013-05-20 06:02:00,58.5,57.7,29.83,NNW,342,0.0,0.0,97,0.00,,,0.01,Wunderground v.1.15,2013-05-20 10:02:00,
2013-05-20 06:08:00,58.4,57.6,29.82,NNW,342,0.0,0.0,97,0.00,,,0.01,Wunderground v.1.15,2013-05-20 10:08:00,
2013-05-20 06:14:00,58.3,57.5,29.83,NNW,342,0.0,0.0,97,0.00,,,0.01,Wunderground v.1.15,2013-05-20 10:14:00,
2013-05-20 06:19:00,58.1,57.3,29.83,NNW,342,0.0,0.0,97,0.00,,,0.01,Wunderground v.1.15,2013-05-20 10:19:00,
2013-05-20 06:25:00,58.0,57.2,29.83,NNW,342,0.0,1.0,97,0.00,,,0.01,Wunderground v.1.15,2013-05-20 10:25:00,
2013-05-20 06:31:00,57.8,57.0,29.84,NNW,342,0.0,0.0,97,0.00,,,0.01,Wunderground v.1.15,2013-05-20 10:31:00,
2013-05-20 06:37:00,57.9,57.1,29.84,NNW,342,0.0,0.0,97,0.00,,,0.01,Wunderground v.1.15,2013-05-20 10:37:00,
2013-05-20 06:42:00,57.8,57.0,29.84,NNW,342,0.0,0.0,97,0.00,,,0.01,Wunderground v.1.15,2013-05-20 10:42:00,
2013-05-20 06:50:00,57.6,56.8,29.84,NNW,342,0.0,0.0,97,0.00,,,0.01,Wunderground v.1.15,2013-05-20 10:50:00,
2013-05-20 06:56:00,57.6,56.8,29.85,NNW,342,0.0,0.0,97,0.00,,,0.01,Wunderground v.1.15,2013-05-20 10:56:00,
2013-05-20 07:01:00,57.5,56.7,29.85,NNW,342,0.0,0.0,97,0.00,,,0.01,Wunderground v.1.15,2013-05-20 11:01:00,
2013-05-20 07:07:00,57.5,56.7,29.85,NNW,342,0.0,0.0,97,0.00,,,0.01,Wunderground v.1.15,2013-05-20 11:07:00,
2013-05-20 07:12:00,57.5,56.7,29.86,NNW,342,0.0,0.0,97,0.00,,,0.01,Wunderground v.1.15,2013-05-20 11:12:00,
2013-05-20 07:18:00,57.7,56.9,29.86,NNW,342,0.0,0.0,97,0.00,,,0.01,Wunderground v.1.15,2013-05-20 11:18:00,
2013-05-20 07:24:00,57.8,57.0,29.86,NNW,344,0.0,0.0,97,0.00,,,0.01,Wunderground v.1.15,2013-05-20 11:24:00,
2013-05-20 07:30:00,57.9,57.1,29.86,NNW,344,0.0,0.0,97,0.00,,,0.01,Wunderground v.1.15,2013-05-20 11:30:00,
2013-05-20 07:35:00,58.0,57.2,29.86,NNW,344,0.0,0.0,97,0.00,,,0.01,Wunderground v.1.15,2013-05-20 11:35:00,
2013-05-20 07:40:00,58.1,57.3,29.86,NNW,344,0.0,0.0,97,0.00,,,0.01,Wunderground v.1.15,2013-05-20 11:40:00,
2013-05-20 07:50:00,58.5,57.9,29.86,East,82,0.0,0.0,98,0.00,,,0.01,Wunderground v.1.15,2013-05-20 11:50:00,
2013-05-20 07:56:00,58.6,57.8,29.86,East,100,0.0,1.0,97,0.00,,,0.01,Wunderground v.1.15,2013-05-20 11:56:00,
2013-05-20 08:02:00,58.7,57.9,29.86,SE,125,0.0,0.0,97,0.00,,,0.01,Wunderground v.1.15,2013-05-20 12:02:00,
2013-05-20 08:07:00,58.9,58.1,29.86,SE,125,0.0,0.0,97,0.00,,,0.01,Wunderground v.1.15,2013-05-20 12:07:00,
2013-05-20 08:12:00,59.0,58.4,29.87,SE,125,0.0,0.0,98,0.00,,,0.01,Wunderground v.1.15,2013-05-20 12:12:00,
2013-05-20 08:18:00,59.3,58.7,29.87,SE,125,0.0,0.0,98,0.00,,,0.01,Wunderground v.1.15,2013-05-20 12:18:00,
2013-05-20 08:50:00,60.3,59.7,29.88,SE,125,0.0,0.0,98,0.00,,,0.01,Wunderground v.1.15,2013-05-20 12:50:00,
2013-05-20 08:56:00,60.5,59.9,29.88,SE,125,0.0,1.0,98,0.00,,,0.01,Wunderground v.1.15,2013-05-20 12:56:00,
2013-05-20 09:01:00,60.9,60.3,29.88,SE,125,0.0,0.0,98,0.00,,,0.01,Wunderground v.1.15,2013-05-20 13:01:00,
2013-05-20 09:07:00,61.2,60.6,29.88,SE,125,0.0,0.0,98,0.00,,,0.01,Wunderground v.1.15,2013-05-20 13:07:00,
2013-05-20 09:13:00,61.7,61.1,29.88,SE,125,0.0,0.0,98,0.00,,,0.01,Wunderground v.1.15,2013-05-20 13:13:00,
2013-05-20 09:19:00,62.2,61.6,29.88,SE,125,0.0,0.0,98,0.00,,,0.01,Wunderground v.1.15,2013-05-20 13:19:00,
2013-05-20 09:24:00,62.7,62.1,29.88,SE,125,0.0,0.0,98,0.00,,,0.01,Wunderground v.1.15,2013-05-20 13:24:00,
2013-05-20 09:30:00,63.3,62.7,29.88,SE,125,0.0,0.0,98,0.00,,,0.01,Wunderground v.1.15,2013-05-20 13:30:00,
2013-05-20 09:35:00,63.7,63.1,29.88,SE,125,0.0,0.0,98,0.00,,,0.01,Wunderground v.1.15,2013-05-20 13:35:00,
2013-05-20 09:40:00,64.1,63.5,29.88,SE,125,0.0,0.0,98,0.00,,,0.01,Wunderground v.1.15,2013-05-20 13:40:00,
2013-05-20 09:45:00,64.5,63.9,29.88,SE,125,0.0,1.0,98,0.00,,,0.01,Wunderground v.1.15,2013-05-20 13:45:00,
2013-05-20 09:50:00,64.9,63.7,29.88,SE,125,0.0,0.0,96,0.00,,,0.01,Wunderground v.1.15,2013-05-20 13:50:00,
2013-05-20 09:56:00,65.2,63.7,29.88,SE,125,0.0,0.0,95,0.00,,,0.01,Wunderground v.1.15,2013-05-20 13:56:00,
2013-05-20 10:01:00,65.9,63.8,29.88,SE,125,0.0,0.0,93,0.00,,,0.01,Wunderground v.1.15,2013-05-20 14:01:00,
2013-05-20 10:07:00,66.4,64.0,29.88,SE,125,0.0,0.0,92,0.00,,,0.01,Wunderground v.1.15,2013-05-20 14:07:00,
2013-05-20 10:13:00,66.8,63.8,29.88,SSE,151,0.0,0.0,90,0.00,,,0.01,Wunderground v.1.15,2013-05-20 14:13:00,
2013-05-20 10:18:00,67.3,64.3,29.88,SSE,151,0.0,0.0,90,0.00,,,0.01,Wunderground v.1.15,2013-05-20 14:18:00,
2013-05-20 10:24:00,67.7,63.7,29.88,East,101,0.0,0.0,87,0.00,,,0.01,Wunderground v.1.15,2013-05-20 14:24:00,
2013-05-20 10:29:00,68.0,64.0,29.88,East,99,0.0,0.0,87,0.00,,,0.01,Wunderground v.1.15,2013-05-20 14:29:00,
2013-05-20 10:50:00,69.7,64.3,29.88,SSE,167,0.0,0.0,83,0.00,,,0.01,Wunderground v.1.15,2013-05-20 14:50:00,
2013-05-20 10:56:00,70.2,65.1,29.88,SSE,167,0.0,0.0,84,0.00,,,0.01,Wunderground v.1.15,2013-05-20 14:56:00,
2013-05-20 11:02:00,70.5,65.4,29.88,SSE,167,0.0,0.0,84,0.00,,,0.01,Wunderground v.1.15,2013-05-20 15:02:00,
2013-05-20 11:08:00,71.1,65.0,29.88,SSE,167,0.0,0.0,81,0.00,,,0.01,Wunderground v.1.15,2013-05-20 15:08:00,
2013-05-20 11:13:00,71.6,65.8,29.88,SSE,167,0.0,1.0,82,0.00,,,0.01,Wunderground v.1.15,2013-05-20 15:13:00,
2013-05-20 11:20:00,72.1,64.9,29.88,SE,130,0.0,0.0,78,0.00,,,0.01,Wunderground v.1.15,2013-05-20 15:20:00,
2013-05-20 11:26:00,72.4,65.5,29.87,NE,41,0.0,0.0,79,0.00,,,0.01,Wunderground v.1.15,2013-05-20 15:26:00,
2013-05-20 11:32:00,72.7,65.1,29.87,NE,41,0.0,0.0,77,0.00,,,0.01,Wunderground v.1.15,2013-05-20 15:32:00,
2013-05-20 11:37:00,73.1,65.8,29.87,NE,46,0.0,0.0,78,0.00,,,0.01,Wunderground v.1.15,2013-05-20 15:37:00,
2013-05-20 11:42:00,73.2,65.2,29.87,NE,46,0.0,0.0,76,0.00,,,0.01,Wunderground v.1.15,2013-05-20 15:42:00,
2013-05-20 11:50:00,73.5,65.5,29.87,SE,142,0.0,0.0,76,0.00,,,0.01,Wunderground v.1.15,2013-05-20 15:50:00,
2013-05-20 11:56:00,73.8,65.0,29.87,ENE,71,0.0,1.0,74,0.00,,,0.01,Wunderground v.1.15,2013-05-20 15:56:00,
2013-05-20 12:01:00,74.1,65.3,29.87,South,175,0.0,0.0,74,0.00,,,0.01,Wunderground v.1.15,2013-05-20 16:01:00,
2013-05-20 12:06:00,74.4,64.8,29.87,East,89,0.0,0.0,72,0.00,,,0.01,Wunderground v.1.15,2013-05-20 16:06:00,
2013-05-20 12:12:00,74.8,64.8,29.86,East,89,0.0,0.0,71,0.00,,,0.01,Wunderground v.1.15,2013-05-20 16:12:00,
2013-05-20 12:17:00,75.2,64.7,29.85,ESE,107,0.0,0.0,70,0.00,,,0.01,Wunderground v.1.15,2013-05-20 16:17:00,
2013-05-20 12:23:00,75.5,65.4,29.85,SE,134,0.0,0.0,71,0.00,,,0.01,Wunderground v.1.15,2013-05-20 16:23:00,
2013-05-20 12:28:00,75.8,66.5,29.84,East,80,0.0,1.0,73,0.00,,,0.01,Wunderground v.1.15,2013-05-20 16:28:00,
2013-05-20 12:34:00,76.5,67.2,29.84,NW,308,0.0,1.0,73,0.00,,,0.01,Wunderground v.1.15,2013-05-20 16:34:00,
2013-05-20 12:40:00,77.1,66.6,29.84,South,184,1.0,1.0,70,0.00,,,0.01,Wunderground v.1.15,2013-05-20 16:40:00,
2013-05-20 12:50:00,77.5,66.1,29.84,East,99,0.0,1.0,68,0.00,,,0.01,Wunderground v.1.15,2013-05-20 16:50:00,
2013-05-20 12:56:00,77.3,66.3,29.84,West,271,1.0,3.0,69,0.00,,,0.01,Wunderground v.1.15,2013-05-20 16:56:00,
2013-05-20 13:02:00,77.4,66.4,29.84,SE,141,1.0,2.0,69,0.00,,,0.01,Wunderground v.1.15,2013-05-20 17:02:00,
2013-05-20 13:08:00,77.9,66.9,29.84,NNW,327,1.0,2.0,69,0.00,,,0.01,Wunderground v.1.15,2013-05-20 17:08:00,
2013-05-20 13:14:00,78.2,66.8,29.83,NNW,339,0.0,1.0,68,0.00,,,0.01,Wunderground v.1.15,2013-05-20 17:14:00,
2013-05-20 13:20:00,78.2,66.8,29.83,SSE,158,1.0,1.0,68,0.00,,,0.01,Wunderground v.1.15,2013-05-20 17:20:00,
2013-05-20 13:25:00,78.1,65.8,29.83,WSW,253,1.0,3.0,66,0.00,,,0.01,Wunderground v.1.15,2013-05-20 17:25:00,
2013-05-20 13:31:00,78.3,66.9,29.83,NNW,342,1.0,1.0,68,0.00,,,0.01,Wunderground v.1.15,2013-05-20 17:31:00,
2013-05-20 13:36:00,78.2,66.8,29.83,ENE,61,1.0,1.0,68,0.00,,,0.01,Wunderground v.1.15,2013-05-20 17:36:00,
2013-05-20 13:42:00,78.4,67.0,29.82,SSE,157,1.0,1.0,68,0.00,,,0.01,Wunderground v.1.15,2013-05-20 17:42:00,
2013-05-20 13:51:00,78.9,67.4,29.82,NNE,15,1.0,1.0,68,0.00,,,0.01,Wunderground v.1.15,2013-05-20 17:51:00,
2013-05-20 13:57:00,79.1,67.6,29.82,ENE,69,0.0,3.0,68,0.00,,,0.01,Wunderground v.1.15,2013-05-20 17:57:00,
2013-05-20 14:02:00,79.0,67.1,29.82,East,85,0.0,1.0,67,0.00,,,0.01,Wunderground v.1.15,2013-05-20 18:02:00,
2013-05-20 14:08:00,78.9,66.6,29.82,SSW,202,1.0,3.0,66,0.00,,,0.01,Wunderground v.1.15,2013-05-20 18:08:00,
2013-05-20 14:14:00,79.3,67.8,29.81,ENE,65,1.0,1.0,68,0.00,,,0.01,Wunderground v.1.15,2013-05-20 18:14:00,
2013-05-20 14:19:00,79.6,67.2,29.81,SE,129,1.0,1.0,66,0.00,,,0.01,Wunderground v.1.15,2013-05-20 18:19:00,
2013-05-20 14:24:00,79.6,67.7,29.81,NNE,24,1.0,1.0,67,0.00,,,0.01,Wunderground v.1.15,2013-05-20 18:24:00,
2013-05-20 14:30:00,79.7,67.8,29.81,ESE,107,1.0,1.0,67,0.00,,,0.01,Wunderground v.1.15,2013-05-20 18:30:00,
2013-05-20 14:36:00,79.8,67.4,29.80,SE,137,1.0,1.0,66,0.00,,,0.01,Wunderground v.1.15,2013-05-20 18:36:00,
2013-05-20 14:42:00,80.2,67.8,29.80,NNE,25,0.0,1.0,66,0.00,,,0.01,Wunderground v.1.15,2013-05-20 18:42:00,
2013-05-20 14:50:00,79.9,68.0,29.80,East,84,1.0,1.0,67,0.00,,,0.01,Wunderground v.1.15,2013-05-20 18:50:00,
2013-05-20 14:56:00,79.4,68.3,29.80,SE,140,1.0,2.0,69,0.00,,,0.01,Wunderground v.1.15,2013-05-20 18:56:00,
2013-05-20 15:01:00,78.9,68.3,29.79,ENE,59,0.0,2.0,70,0.00,,,0.01,Wunderground v.1.15,2013-05-20 19:01:00,
2013-05-20 15:07:00,78.5,68.3,29.79,South,175,1.0,2.0,71,0.00,,,0.01,Wunderground v.1.15,2013-05-20 19:07:00,
2013-05-20 15:12:00,78.5,68.7,29.79,ESE,106,1.0,2.0,72,0.00,,,0.01,Wunderground v.1.15,2013-05-20 19:12:00,
2013-05-20 15:18:00,78.1,68.7,29.79,NE,56,1.0,2.0,73,0.00,,,0.01,Wunderground v.1.15,2013-05-20 19:18:00,
2013-05-20 15:23:00,77.7,68.7,29.79,NE,56,1.0,1.0,74,0.00,,,0.01,Wunderground v.1.15,2013-05-20 19:23:00,
2013-05-20 15:29:00,77.9,68.9,29.78,SE,128,0.0,1.0,74,0.00,,,0.01,Wunderground v.1.15,2013-05-20 19:29:00,
2013-05-20 15:35:00,78.2,69.2,29.78,SE,128,0.0,2.0,74,0.00,,,0.01,Wunderground v.1.15,2013-05-20 19:35:00,
2013-05-20 15:41:00,78.3,68.9,29.77,SE,126,1.0,1.0,73,0.00,,,0.01,Wunderground v.1.15,2013-05-20 19:41:00,
2013-05-20 15:50:00,77.5,68.2,29.78,ENE,67,1.0,2.0,73,0.00,,,0.01,Wunderground v.1.15,2013-05-20 19:50:00,
2013-05-20 15:56:00,76.8,68.3,29.78,SE,136,1.0,3.0,75,0.00,,,0.01,Wunderground v.1.15,2013-05-20 19:56:00,
2013-05-20 16:01:00,76.2,68.1,29.77,SSW,202,1.0,1.0,76,0.00,,,0.01,Wunderground v.1.15,2013-05-20 20:01:00,
2013-05-20 16:07:00,75.4,68.1,29.77,NNW,334,1.0,1.0,78,0.00,,,0.01,Wunderground v.1.15,2013-05-20 20:07:00,
2013-05-20 16:13:00,74.6,67.7,29.77,NW,319,0.0,1.0,79,0.00,,,0.01,Wunderground v.1.15,2013-05-20 20:13:00,
2013-05-20 16:18:00,74.0,67.4,29.77,NNE,13,0.0,1.0,80,0.00,,,0.01,Wunderground v.1.15,2013-05-20 20:18:00,
2013-05-20 16:24:00,73.4,67.2,29.77,NNE,13,0.0,0.0,81,0.00,,,0.01,Wunderground v.1.15,2013-05-20 20:24:00,
2013-05-20 16:30:00,73.0,67.2,29.78,NE,40,0.0,0.0,82,0.00,,,0.01,Wunderground v.1.15,2013-05-20 20:30:00,
2013-05-20 16:36:00,72.7,67.2,29.77,NE,40,0.0,0.0,83,0.00,,,0.01,Wunderground v.1.15,2013-05-20 20:36:00,
2013-05-20 16:41:00,72.5,67.0,29.78,NE,49,0.0,0.0,83,0.00,,,0.01,Wunderground v.1.15,2013-05-20 20:41:00,
2013-05-20 16:50:00,72.1,67.3,29.78,NE,49,0.0,0.0,85,0.00,,,0.01,Wunderground v.1.15,2013-05-20 20:50:00,
2013-05-20 16:56:00,71.8,67.7,29.78,NE,49,0.0,3.0,87,0.00,,,0.02,Wunderground v.1.15,2013-05-20 20:56:00,
2013-05-20 17:01:00,71.4,68.0,29.79,NE,49,0.0,0.0,89,0.00,,,0.02,Wunderground v.1.15,2013-05-20 21:01:00,
2013-05-20 17:06:00,71.1,68.0,29.79,NE,49,0.0,0.0,90,0.05,,,0.03,Wunderground v.1.15,2013-05-20 21:06:00,
2013-05-20 17:12:00,70.7,67.9,29.79,NE,49,0.0,0.0,91,1.25,,,0.12,Wunderground v.1.15,2013-05-20 21:12:00,
2013-05-20 17:18:00,70.2,67.4,29.79,NE,49,0.0,0.0,91,0.79,,,0.21,Wunderground v.1.15,2013-05-20 21:18:00,
2013-05-20 17:24:00,69.6,67.2,29.79,NNW,343,0.0,1.0,92,0.46,,,0.27,Wunderground v.1.15,2013-05-20 21:24:00,
2013-05-20 17:30:00,69.4,67.3,29.79,NNW,343,0.0,1.0,93,0.17,,,0.29,Wunderground v.1.15,2013-05-20 21:30:00,
2013-05-20 17:35:00,69.4,67.6,29.80,NNW,343,0.0,1.0,94,0.17,,,0.31,Wunderground v.1.15,2013-05-20 21:35:00,
2013-05-20 17:41:00,69.3,67.5,29.79,NNW,343,0.0,0.0,94,0.23,,,0.33,Wunderground v.1.15,2013-05-20 21:41:00,
2013-05-20 17:51:00,69.1,67.3,29.80,NNW,343,0.0,0.0,94,0.24,,,0.37,Wunderground v.1.15,2013-05-20 21:51:00,
2013-05-20 17:56:00,69.0,67.2,29.79,NNW,343,0.0,0.0,94,0.19,,,0.39,Wunderground v.1.15,2013-05-20 21:56:00,
2013-05-20 18:01:00,68.9,67.4,29.79,NNW,343,0.0,0.0,95,0.19,,,0.40,Wunderground v.1.15,2013-05-20 22:01:00,
2013-05-20 18:07:00,68.9,67.4,29.79,NNW,343,0.0,0.0,95,0.13,,,0.41,Wunderground v.1.15,2013-05-20 22:07:00,
2013-05-20 18:12:00,68.9,67.4,29.79,NNW,343,0.0,0.0,95,0.06,,,0.41,Wunderground v.1.15,2013-05-20 22:12:00,
2013-05-20 18:18:00,68.9,67.4,29.78,NNW,343,0.0,0.0,95,0.04,,,0.41,Wunderground v.1.15,2013-05-20 22:18:00,
2013-05-20 18:24:00,68.8,67.3,29.77,NNW,343,0.0,0.0,95,0.00,,,0.41,Wunderground v.1.15,2013-05-20 22:24:00,
2013-05-20 18:30:00,68.8,67.3,29.77,NNW,343,0.0,0.0,95,0.00,,,0.41,Wunderground v.1.15,2013-05-20 22:30:00,
2013-05-20 18:35:00,68.8,67.3,29.77,NNW,343,0.0,0.0,95,0.00,,,0.41,Wunderground v.1.15,2013-05-20 22:35:00,
2013-05-20 18:40:00,68.8,67.6,29.77,NNW,343,0.0,0.0,96,0.00,,,0.41,Wunderground v.1.15,2013-05-20 22:40:00,
2013-05-20 18:50:00,68.9,67.7,29.76,NNW,343,0.0,0.0,96,0.00,,,0.41,Wunderground v.1.15,2013-05-20 22:50:00,
2013-05-20 18:56:00,68.9,67.7,29.75,NNW,343,0.0,0.0,96,0.00,,,0.41,Wunderground v.1.15,2013-05-20 22:56:00,
2013-05-20 19:01:00,68.9,67.4,29.75,NNW,343,0.0,0.0,95,0.00,,,0.41,Wunderground v.1.15,2013-05-20 23:01:00,
2013-05-20 19:06:00,68.9,67.7,29.75,NNW,343,0.0,0.0,96,0.00,,,0.41,Wunderground v.1.15,2013-05-20 23:06:00,
2013-05-20 19:12:00,68.8,67.3,29.75,NNW,343,0.0,0.0,95,0.00,,,0.41,Wunderground v.1.15,2013-05-20 23:12:00,
2013-05-20 19:18:00,68.5,67.0,29.75,NNW,343,0.0,0.0,95,0.00,,,0.41,Wunderground v.1.15,2013-05-20 23:18:00,
2013-05-20 19:23:00,68.4,66.9,29.75,NNW,343,0.0,0.0,95,0.00,,,0.41,Wunderground v.1.15,2013-05-20 23:23:00,
2013-05-20 19:28:00,68.4,66.9,29.75,NNW,343,0.0,1.0,95,0.00,,,0.41,Wunderground v.1.15,2013-05-20 23:28:00,
2013-05-20 19:34:00,68.4,67.2,29.75,NNW,343,0.0,0.0,96,0.00,,,0.41,Wunderground v.1.15,2013-05-20 23:34:00,
2013-05-20 19:39:00,68.3,66.8,29.75,NNW,343,0.0,0.0,95,0.00,,,0.41,Wunderground v.1.15,2013-05-20 23:39:00,
2013-05-20 19:45:00,68.2,67.0,29.75,NNW,343,0.0,0.0,96,0.00,,,0.41,Wunderground v.1.15,2013-05-20 23:45:00,
2013-05-20 19:50:00,68.1,66.6,29.75,NNW,343,0.0,0.0,95,0.00,,,0.41,Wunderground v.1.15,2013-05-20 23:50:00,
2013-05-20 19:56:00,68.0,66.5,29.74,NNW,343,0.0,0.0,95,0.00,,,0.41,Wunderground v.1.15,2013-05-20 23:56:00,
2013-05-20 20:01:00,67.9,66.4,29.75,NNW,343,0.0,0.0,95,0.00,,,0.41,Wunderground v.1.15,2013-05-21 00:01:00,
2013-05-20 20:07:00,67.9,66.4,29.75,NNW,343,0.0,0.0,95,0.00,,,0.41,Wunderground v.1.15,2013-05-21 00:07:00,
2013-05-20 20:13:00,67.8,66.3,29.75,NNW,343,0.0,0.0,95,0.00,,,0.41,Wunderground v.1.15,2013-05-21 00:13:00,
2013-05-20 20:18:00,67.6,66.1,29.75,NNW,343,0.0,0.0,95,0.00,,,0.41,Wunderground v.1.15,2013-05-21 00:18:00,
2013-05-20 20:24:00,67.4,65.9,29.75,NNW,343,0.0,0.0,95,0.00,,,0.41,Wunderground v.1.15,2013-05-21 00:24:00,
2013-05-20 20:29:00,67.3,65.8,29.76,NNW,343,0.0,0.0,95,0.00,,,0.41,Wunderground v.1.15,2013-05-21 00:29:00,
2013-05-20 20:35:00,67.1,65.6,29.76,NNW,343,0.0,0.0,95,0.00,,,0.41,Wunderground v.1.15,2013-05-21 00:35:00,
2013-05-20 20:41:00,66.9,65.4,29.76,NNW,343,0.0,0.0,95,0.00,,,0.41,Wunderground v.1.15,2013-05-21 00:41:00,
2013-05-20 20:51:00,66.7,65.2,29.76,NNW,343,0.0,0.0,95,0.00,,,0.41,Wunderground v.1.15,2013-05-21 00:51:00,
2013-05-20 20:56:00,66.6,65.1,29.76,NNW,343,0.0,0.0,95,0.00,,,0.41,Wunderground v.1.15,2013-05-21 00:56:00,
2013-05-20 21:01:00,66.5,65.3,29.76,NNW,343,0.0,0.0,96,0.00,,,0.41,Wunderground v.1.15,2013-05-21 01:01:00,
2013-05-20 21:07:00,66.4,65.2,29.76,NNW,343,0.0,0.0,96,0.00,,,0.41,Wunderground v.1.15,2013-05-21 01:07:00,
2013-05-20 21:13:00,66.3,65.1,29.76,NNW,343,0.0,0.0,96,0.00,,,0.41,Wunderground v.1.15,2013-05-21 01:13:00,
2013-05-20 21:19:00,66.2,65.0,29.76,NNW,343,0.0,0.0,96,0.00,,,0.41,Wunderground v.1.15,2013-05-21 01:19:00,
2013-05-20 21:25:00,66.2,65.0,29.76,NNW,343,0.0,0.0,96,0.00,,,0.41,Wunderground v.1.15,2013-05-21 01:25:00,
2013-05-20 21:31:00,66.1,64.9,29.76,NNW,343,0.0,0.0,96,0.00,,,0.41,Wunderground v.1.15,2013-05-21 01:31:00,
2013-05-20 21:37:00,66.0,64.8,29.76,NNW,343,0.0,0.0,96,0.00,,,0.41,Wunderground v.1.15,2013-05-21 01:37:00,
2013-05-20 21:43:00,65.9,64.7,29.76,NNW,343,0.0,0.0,96,0.00,,,0.41,Wunderground v.1.15,2013-05-21 01:43:00,
2013-05-20 21:50:00,65.8,64.6,29.76,NNW,343,0.0,0.0,96,0.00,,,0.41,Wunderground v.1.15,2013-05-21 01:50:00,
2013-05-20 21:56:00,65.7,64.5,29.77,NNW,343,0.0,0.0,96,0.00,,,0.41,Wunderground v.1.15,2013-05-21 01:56:00,
2013-05-20 22:01:00,65.7,64.5,29.77,NNW,343,0.0,0.0,96,0.00,,,0.41,Wunderground v.1.15,2013-05-21 02:01:00,
2013-05-20 22:07:00,65.6,64.4,29.77,NNW,343,0.0,0.0,96,0.00,,,0.41,Wunderground v.1.15,2013-05-21 02:07:00,
2013-05-20 22:12:00,65.5,64.3,29.77,NNW,343,0.0,0.0,96,0.00,,,0.41,Wunderground v.1.15,2013-05-21 02:12:00,
2013-05-20 22:18:00,65.4,64.2,29.77,NNW,343,0.0,0.0,96,0.00,,,0.41,Wunderground v.1.15,2013-05-21 02:18:00,
2013-05-20 22:23:00,65.4,64.2,29.77,NNW,343,0.0,0.0,96,0.00,,,0.41,Wunderground v.1.15,2013-05-21 02:23:00,
2013-05-20 22:29:00,65.3,64.1,29.78,NNW,343,0.0,0.0,96,0.00,,,0.41,Wunderground v.1.15,2013-05-21 02:29:00,
2013-05-20 22:35:00,65.3,64.1,29.78,NNW,343,0.0,0.0,96,0.00,,,0.41,Wunderground v.1.15,2013-05-21 02:35:00,
2013-05-20 22:41:00,65.3,64.1,29.78,NNW,343,0.0,0.0,96,0.00,,,0.41,Wunderground v.1.15,2013-05-21 02:41:00,
2013-05-20 22:50:00,65.5,64.6,29.78,NNW,343,0.0,0.0,97,0.00,,,0.41,Wunderground v.1.15,2013-05-21 02:50:00,
2013-05-20 22:56:00,65.5,64.6,29.78,NNW,343,0.0,0.0,97,0.00,,,0.41,Wunderground v.1.15,2013-05-21 02:56:00,
2013-05-20 23:01:00,65.6,64.7,29.78,NNW,343,0.0,0.0,97,0.00,,,0.41,Wunderground v.1.15,2013-05-21 03:01:00,
2013-05-20 23:06:00,65.8,64.9,29.78,NNW,343,0.0,0.0,97,0.00,,,0.41,Wunderground v.1.15,2013-05-21 03:06:00,
2013-05-20 23:12:00,65.9,65.0,29.78,NNW,343,0.0,0.0,97,0.00,,,0.41,Wunderground v.1.15,2013-05-21 03:12:00,
2013-05-20 23:18:00,65.9,65.0,29.78,NNW,343,0.0,1.0,97,0.00,,,0.41,Wunderground v.1.15,2013-05-21 03:18:00,
2013-05-20 23:23:00,66.0,65.1,29.78,NNW,343,0.0,0.0,97,0.00,,,0.41,Wunderground v.1.15,2013-05-21 03:23:00,
2013-05-20 23:29:00,66.1,65.2,29.77,NNW,343,0.0,1.0,97,0.00,,,0.41,Wunderground v.1.15,2013-05-21 03:29:00,
2013-05-20 23:35:00,66.1,65.2,29.77,NNW,343,0.0,0.0,97,0.00,,,0.41,Wunderground v.1.15,2013-05-21 03:35:00,
2013-05-20 23:40:00,66.0,65.1,29.77,NNW,343,0.0,0.0,97,0.00,,,0.41,Wunderground v.1.15,2013-05-21 03:40:00,
2013-05-20 23:45:00,65.9,65.0,29.77,NNW,343,0.0,0.0,97,0.00,,,0.41,Wunderground v.1.15,2013-05-21 03:45:00,
2013-05-20 23:51:00,65.7,64.8,29.77,NNW,343,0.0,0.0,97,0.00,,,0.41,Wunderground v.1.15,2013-05-21 03:51:00,
2013-05-20 23:56:00,65.5,64.6,29.77,NNW,343,0.0,1.0,97,0.00,,,0.41,Wunderground v.1.15,2013-05-21 03:56:00,